• Join FlightAware (Why Join?)
  • Login
  • US Flag 
06:45AM EDT


 

Airport Tracker/Info


-or-


 

Live Flight TrackerFlight Track Log ✈ UAL33 ✈ 08-Jan-2014 ✈ RJAA / NRT - KLAX

Flight Track Log - Related Links

Times and Time Zones

All times are in EST time to prevent confusion due to time zone crossing. See the UAL33 flight status page for this flight to view local times or setup timezone preferences in your user account.

Time Position Orientation Groundspeed Altitude Reporting Facility
EST Latitude Longitude Course Direction KTS MPH feet Rate Location/Type
05:24AM 37.1935 143.1104 74° East  Level Estimated
05:25AM 37.1866 143.3033 93° East  Level FlightAware Approximate
05:26AM 37.1793 143.4961 93° East  Level FlightAware Approximate
05:27AM 37.1717 143.6889 93° East  Level FlightAware Approximate
05:28AM 37.1638 143.8817 93° East  Level FlightAware Approximate
05:29AM 37.1556 144.0745 93° East  Level FlightAware Approximate
05:30AM 37.1471 144.2672 93° East  Level FlightAware Approximate
05:31AM 37.1383 144.4598 93° East  Level FlightAware Approximate
05:32AM 37.1292 144.6524 93° East  Level FlightAware Approximate
05:33AM 37.1197 144.8450 93° East  Level FlightAware Approximate
05:34AM 37.1099 145.0375 94° East  Level FlightAware Approximate
05:35AM 37.1899 145.2023 84° East  Level Estimated
05:36AM 37.1860 145.3954 91° East  Level FlightAware Approximate
05:37AM 37.1818 145.5884 92° East  Level FlightAware Approximate
05:38AM 37.1773 145.7813 92° East  Level FlightAware Approximate
05:39AM 37.1724 145.9743 92° East  Level FlightAware Approximate
05:40AM 37.1672 146.1698 92° East  Level FlightAware Approximate
05:41AM 37.1617 146.3653 92° East  Level FlightAware Approximate
05:42AM 37.1558 146.5608 92° East  Level FlightAware Approximate
05:43AM 37.2351 146.7294 73° East  Level Estimated
05:44AM 37.2718 146.9197 76° East  Level FlightAware Approximate
05:45AM 37.3081 147.1103 76° East  Level FlightAware Approximate
05:46AM 37.3442 147.3010 77° East  Level FlightAware Approximate
05:47AM 37.3799 147.4919 77° East  Level FlightAware Approximate
05:48AM 37.4154 147.6830 77° East  Level FlightAware Approximate
05:49AM 37.4505 147.8743 77° East  Level FlightAware Approximate
05:50AM 37.4853 148.0658 77° East  Level FlightAware Approximate
05:51AM 37.5198 148.2574 77° East  Level FlightAware Approximate
05:52AM 37.5540 148.4492 77° East  Level FlightAware Approximate
05:53AM 37.5879 148.6412 77° East  Level FlightAware Approximate
05:54AM 37.6215 148.8334 78° East  Level FlightAware Approximate
05:55AM 37.6548 149.0257 78° East  Level FlightAware Approximate
05:56AM 37.6877 149.2182 78° East  Level FlightAware Approximate
05:57AM 37.7204 149.4109 78° East  Level FlightAware Approximate
05:58AM 37.7527 149.6038 78° East  Level FlightAware Approximate
05:59AM 37.7847 149.7968 78° East  Level FlightAware Approximate
06:00AM 37.8164 149.9900 78° East  Level FlightAware Approximate
06:01AM 37.8478 150.1833 78° East  Level FlightAware Approximate
06:02AM 37.8789 150.3768 78° East  Level FlightAware Approximate
06:03AM 37.9096 150.5705 79° East  Level FlightAware Approximate
06:04AM 37.9401 150.7644 79° East  Level FlightAware Approximate
06:05AM 37.9702 150.9584 79° East  Level FlightAware Approximate
06:06AM 38.0000 151.1525 79° East  Level FlightAware Approximate
06:07AM 38.0295 151.3468 79° East  Level FlightAware Approximate
06:08AM 38.0586 151.5413 79° East  Level FlightAware Approximate
06:09AM 38.0875 151.7359 79° East  Level FlightAware Approximate
06:10AM 38.1160 151.9307 79° East  Level FlightAware Approximate
06:11AM 38.1442 152.1256 80° East  Level FlightAware Approximate
06:12AM 38.1721 152.3207 80° East  Level FlightAware Approximate
06:13AM 38.1996 152.5159 80° East  Level FlightAware Approximate
06:14AM 38.2268 152.7113 80° East  Level FlightAware Approximate
06:15AM 38.2537 152.9068 80° East  Level FlightAware Approximate
06:16AM 38.2803 153.1025 80° East  Level FlightAware Approximate
06:17AM 38.3066 153.2983 80° East  Level FlightAware Approximate
06:18AM 38.3325 153.4942 80° East  Level FlightAware Approximate
06:19AM 38.3581 153.6903 80° East  Level FlightAware Approximate
06:20AM 38.3834 153.8866 81° East  Level FlightAware Approximate
06:21AM 38.4083 154.0829 81° East  Level FlightAware Approximate
06:22AM 38.4329 154.2794 81° East  Level FlightAware Approximate
06:23AM 38.4572 154.4760 81° East  Level FlightAware Approximate
06:24AM 38.4812 154.6728 81° East  Level FlightAware Approximate
06:25AM 38.5048 154.8697 81° East  Level FlightAware Approximate
06:26AM 38.5281 155.0667 81° East  Level FlightAware Approximate
06:27AM 38.5511 155.2638 81° East  Level FlightAware Approximate
06:28AM 38.5737 155.4611 82° East  Level FlightAware Approximate
06:29AM 38.5960 155.6585 82° East  Level FlightAware Approximate
06:30AM 38.6180 155.8560 82° East  Level FlightAware Approximate
06:31AM 38.6397 156.0536 82° East  Level FlightAware Approximate
06:32AM 38.6610 156.2514 82° East  Level FlightAware Approximate
06:33AM 38.6819 156.4493 82° East  Level FlightAware Approximate
06:34AM 38.7026 156.6472 82° East  Level FlightAware Approximate
06:35AM 38.7690 156.8281 80° East  Level Estimated
06:36AM 38.7961 157.0250 80° East  Level FlightAware Approximate
06:37AM 38.8228 157.2221 80° East  Level FlightAware Approximate
06:38AM 38.8492 157.4194 80° East  Level FlightAware Approximate
06:39AM 38.8752 157.6168 80° East  Level FlightAware Approximate
06:40AM 38.9010 157.8143 80° East  Level FlightAware Approximate
06:41AM 38.9264 158.0120 81° East  Level FlightAware Approximate
06:42AM 38.9514 158.2099 81° East  Level FlightAware Approximate
06:43AM 38.9762 158.4078 81° East  Level FlightAware Approximate
06:44AM 39.0005 158.6060 81° East  Level FlightAware Approximate
06:45AM 39.0246 158.8042 81° East  Level FlightAware Approximate
06:46AM 39.0483 159.0026 81° East  Level FlightAware Approximate
06:47AM 39.0717 159.2011 81° East  Level FlightAware Approximate
06:48AM 39.0948 159.3997 81° East  Level FlightAware Approximate
06:49AM 39.1175 159.5985 82° East  Level FlightAware Approximate
06:50AM 39.1399 159.7974 82° East  Level FlightAware Approximate
06:51AM 39.1619 159.9964 82° East  Level FlightAware Approximate
06:52AM 39.1836 160.1955 82° East  Level FlightAware Approximate
06:53AM 39.2049 160.3948 82° East  Level FlightAware Approximate
06:54AM 39.2260 160.5942 82° East  Level FlightAware Approximate
06:55AM 39.2467 160.7937 82° East  Level FlightAware Approximate
06:56AM 39.2670 160.9933 82° East  Level FlightAware Approximate
06:57AM 39.2870 161.1931 83° East  Level FlightAware Approximate
06:58AM 39.3066 161.3929 83° East  Level FlightAware Approximate
06:59AM 39.3260 161.5929 83° East  Level FlightAware Approximate
07:00AM 39.3858 161.7791 82° East  Level Estimated
07:01AM 39.4078 161.9788 82° East  Level FlightAware Approximate
07:02AM 39.4294 162.1786 82° East  Level FlightAware Approximate
07:03AM 39.4507 162.3786 82° East  Level FlightAware Approximate
07:04AM 39.4716 162.5787 82° East  Level FlightAware Approximate
07:05AM 39.4922 162.7789 82° East  Level FlightAware Approximate
07:06AM 39.5125 162.9793 82° East  Level FlightAware Approximate
07:07AM 39.5324 163.1797 83° East  Level FlightAware Approximate
07:08AM 39.5520 163.3803 83° East  Level FlightAware Approximate
07:09AM 39.5712 163.5810 83° East  Level FlightAware Approximate
07:10AM 39.5896 163.7772 83° East  Level FlightAware Approximate
07:11AM 39.6077 163.9736 83° East  Level FlightAware Approximate
07:12AM 39.6255 164.1700 83° East  Level FlightAware Approximate
07:13AM 39.6430 164.3665 83° East  Level FlightAware Approximate
07:14AM 39.6601 164.5632 83° East  Level FlightAware Approximate
07:15AM 39.6769 164.7599 84° East  Level FlightAware Approximate
07:16AM 39.6934 164.9568 84° East  Level FlightAware Approximate
07:17AM 39.7094 165.1518 84° East  Level FlightAware Approximate
07:18AM 39.7250 165.3470 84° East  Level FlightAware Approximate
07:19AM 39.7404 165.5423 84° East  Level FlightAware Approximate
07:20AM 39.7554 165.7376 84° East  Level FlightAware Approximate
07:21AM 39.7700 165.9330 84° East  Level FlightAware Approximate
07:22AM 39.7844 166.1285 84° East  Level FlightAware Approximate
07:23AM 39.7984 166.3241 85° East  Level FlightAware Approximate
07:24AM 39.8121 166.5198 85° East  Level FlightAware Approximate
07:25AM 39.8255 166.7155 85° East  Level FlightAware Approximate
07:26AM 39.8767 166.9005 79° East  Level Estimated
07:27AM 39.9045 167.0938 79° East  Level FlightAware Approximate
07:28AM 39.9319 167.2874 79° East  Level FlightAware Approximate
07:29AM 39.9591 167.4810 80° East  Level FlightAware Approximate
07:29AM 39.8167 167.3500 84° East 565 650 39,000  Level Oakland Oceanic (ODAPS)
07:39AM 40.0167 170.1500 79° East 556 640 39,000  Level Oakland Oceanic (ODAPS)
07:39AM 40.0333 170.2167 79° East 548 631 39,000  Level Oakland Oceanic (ODAPS)
07:53AM 40.3833 172.8833 81° East 556 640 39,000  Level Oakland Oceanic (ODAPS)
08:06AM 40.6833 175.6667 83° East 547 629 39,000  Level Oakland Oceanic (ODAPS)
08:20AM 40.9000 178.4500 85° East 555 639 39,000  Level Oakland Oceanic (ODAPS)
08:28AM 41.0000 180.0000 72° East 558 642 39,000  Level Oakland Oceanic (ODAPS)
08:34AM 41.3000 -178.7500 72° East 564 649 39,000  Level Oakland Oceanic (ODAPS)
08:48AM 41.9500 -175.8833 74° East 574 661 39,000  Level Oakland Oceanic (ODAPS)
09:02AM 42.5167 -172.9167 76° East 587 676 39,000  Level Oakland Oceanic (ODAPS)
09:15AM 43.0000 -170.0000 79° East 579 666 40,000  Climbing Oakland Oceanic (ODAPS)
09:16AM 43.0000 -170.0000 79° East 587 676 39,000  Descending FlightAware Transoceanic
09:16AM 43.0167 -169.9000 79° East 579 666 40,000 60 Climbing Oakland Oceanic (ODAPS)
09:30AM 43.4167 -166.8833 81° East 568 654 40,000  Level Oakland Oceanic (ODAPS)
09:44AM 43.7167 -163.9167 83° East 568 654 40,000 -120 Level Oakland Oceanic (ODAPS)
09:57AM 43.9500 -160.8333 85° East 629 724 37,000 -180 Descending Oakland Oceanic (ODAPS)
10:01AM 44.0000 -160.0000 87° East 605 696 37,000  Level Oakland Oceanic (ODAPS)
10:11AM 44.0833 -157.5333 88° East 600 690 37,000 120 Level Oakland Oceanic (ODAPS)
10:25AM 44.1000 -154.4500 90° East 575 662 41,000 120 Climbing Oakland Oceanic (ODAPS)
10:39AM 44.0500 -151.5000 92° East 574 661 41,000  Level Oakland Oceanic (ODAPS)
10:46AM 44.0000 -150.0000 102° East 562 647 41,000  Level Oakland Oceanic (ODAPS)
10:52AM 43.7667 -148.5000 103° East 553 636 41,000  Level Oakland Oceanic (ODAPS)
11:06AM 43.2500 -145.6333 105° East 553 636 41,000  Level Oakland Oceanic (ODAPS)
11:20AM 42.6667 -142.8167 107° East 559 643 41,000  Level Oakland Oceanic (ODAPS)
11:34AM 42.0167 -140.0333 124° Southeast 536 617 41,000  Level Oakland Oceanic (ODAPS)
11:34AM 42.0000 -140.0000 108° East 554 638 41,000  Level Oakland Oceanic (ODAPS)
11:48AM 41.3167 -137.3333 110° East 553 636 41,000  Level Oakland Oceanic (ODAPS)
12:02PM 40.5500 -134.7000 112° Southeast 555 639 41,000  Level Oakland Oceanic (ODAPS)
12:16PM 39.7333 -132.1167 113° Southeast 569 655 41,000  Level Oakland Oceanic (ODAPS)
12:27PM 39.0000 -130.0000 102° East 559 643 41,000  Level Oakland Oceanic (ODAPS)
12:29PM 38.9333 -129.5500 102° East 550 633 41,000 -60 Level Oakland Oceanic (ODAPS)
12:40PM 38.5539 -127.4586 111° Southeast 564 649 40,900  Descending Oakland Center
12:41PM 38.5420 -127.3901 104° East 550 633 41,000  Climbing FlightAware Transoceanic
12:41PM 38.5192 -127.2672 103° East 560 644 40,900  Descending Oakland Center
12:42PM 38.5045 -127.1950 104° East 550 633 41,000 60 Climbing FlightAware Transoceanic
12:42PM 38.4819 -127.0750 104° East 560 644 41,000  Level Oakland Center
12:43PM 38.4667 -127.0000 111° Southeast 550 633 41,000  Level FlightAware Transoceanic
12:43PM 38.4342 -126.8878 108° East 556 640 41,000  Level Oakland Center
12:44PM 38.4158 -126.8324 111° Southeast 550 633 41,000  Level FlightAware Transoceanic
12:44PM 38.3733 -126.7061 113° Southeast 557 641 41,000  Level Oakland Center
12:45PM 38.3646 -126.6650 111° Southeast 550 633 41,000  Level FlightAware Transoceanic
12:45PM 38.3089 -126.5289 115° Southeast 555 639 41,000  Level Oakland Center
12:46PM 38.3132 -126.4979 111° Southeast 550 633 41,000  Level FlightAware Transoceanic
12:46PM 38.2447 -126.3536 115° Southeast 551 634 41,000  Level Oakland Center
12:47PM 38.1706 -126.1525 115° Southeast 553 636 41,000  Level Oakland Center
12:48PM 38.1069 -125.9767 115° Southeast 551 634 41,000  Level Oakland Center
12:50PM 38.0411 -125.8003 115° Southeast 553 636 41,000 -60 Level Oakland Center
12:51PM 37.9731 -125.6236 116° Southeast 556 640 40,900  Descending Oakland Center
12:52PM 37.9081 -125.4469 115° Southeast 556 640 41,000  Climbing Oakland Center
12:53PM 37.8403 -125.2694 116° Southeast 561 646 41,000  Level Oakland Center
12:54PM 37.7722 -125.0919 116° Southeast 562 647 41,000 -60 Level Oakland Center
12:55PM 37.6914 -124.8811 116° Southeast 559 643 40,900 -60 Descending Oakland Center
12:56PM 37.6228 -124.7053 116° Southeast 561 646 40,900  Level Oakland Center
12:57PM 37.5542 -124.5286 116° Southeast 563 648 40,900  Level Oakland Center
12:58PM 37.4858 -124.3531 116° Southeast 562 647 41,000  Climbing Oakland Center
12:59PM 37.4175 -124.1800 116° Southeast 557 641 41,000 -60 Level Oakland Center
01:00PM 37.3506 -124.0092 116° Southeast 551 634 40,900 -60 Descending Oakland Center
01:01PM 37.2778 -123.8322 117° Southeast 572 658 40,900  Level Oakland Center
01:02PM 37.2086 -123.6583 116° Southeast 564 649 40,900  Level Oakland Center
01:03PM 37.1269 -123.4514 116° Southeast 557 641 41,000  Climbing Oakland Center
01:04PM 37.0572 -123.2831 117° Southeast 549 632 40,900 -60 Descending Oakland Center
01:05PM 36.9892 -123.1119 116° Southeast 552 635 40,900  Level Oakland Center
01:06PM 36.9194 -122.9425 117° Southeast 551 634 41,000  Climbing Oakland Center
01:07PM 36.8494 -122.7728 117° Southeast 550 633 40,900 -60 Descending Oakland Center
01:08PM 36.7806 -122.6019 117° Southeast 555 639 40,900  Level Oakland Center
01:09PM 36.7097 -122.4350 118° Southeast 551 634 40,900  Level Oakland Center
01:10PM 36.6253 -122.2331 117° Southeast 550 633 41,000  Climbing Oakland Center
01:11PM 36.5539 -122.0631 118° Southeast 555 639 41,000  Level Oakland Center
01:12PM 36.4819 -121.8953 118° Southeast 554 638 41,000  Level Oakland Center
01:13PM 36.4078 -121.7208 118° Southeast 555 639 41,000 -60 Level Oakland Center
01:14PM 36.3361 -121.5519 118° Southeast 555 639 40,900  Descending Oakland Center
01:15PM 36.2614 -121.3828 119° Southeast 557 641 41,000  Climbing Oakland Center
01:16PM 36.1814 -121.2189 121° Southeast 559 643 40,900  Descending Oakland Center
01:17PM 36.0914 -121.0647 126° Southeast 554 638 41,000  Climbing Oakland Center
01:18PM 36.0019 -120.9103 126° Southeast 553 636 40,900  Descending Oakland Center
01:19PM 35.9128 -120.7533 125° Southeast 556 640 41,000  Climbing Oakland Center
01:20PM 35.8153 -120.6058 129° Southeast 556 640 40,900 -60 Descending Oakland Center
01:21PM 35.7053 -120.4739 136° Southeast 550 633 40,900 -180 Level Oakland Center
01:22PM 35.5869 -120.3319 136° Southeast 552 635 40,600 -600 Descending Los Angeles Center
01:23PM 35.5017 -120.2272 135° Southeast 545 627 39,800 -2,100 Descending Los Angeles Center
01:24PM 35.3764 -120.0744 135° Southeast 538 619 36,300 -2,760 Descending Los Angeles Center
01:25PM 35.2625 -119.9411 136° Southeast 558 642 34,100 -2,520 Descending Los Angeles Center
01:26PM 35.1317 -119.7858 136° Southeast 548 631 31,100 -2,640 Descending Los Angeles Center
01:27PM 35.0250 -119.6606 136° Southeast 535 616 28,700 -2,160 Descending Los Angeles Center
01:28PM 34.9236 -119.5381 135° Southeast 519 597 26,700 -1,980 Descending Los Angeles Center
01:29PM 34.8264 -119.4247 136° Southeast 490 564 24,700 -1,920 Descending Los Angeles Center
01:30PM 34.7328 -119.3139 136° Southeast 472 543 22,700 -2,100 Descending Los Angeles Center
01:31PM 34.6228 -119.1878 137° Southeast 457 526 20,400 -2,040 Descending Los Angeles Center
01:33PM 34.5431 -119.0969 137° Southeast 448 516 18,600 -1,800 Descending Los Angeles Center
01:34PM 34.4561 -118.9950 136° Southeast 432 497 16,800 -2,100 Descending Los Angeles Center
01:35PM 34.3508 -118.8817 138° Southeast 420 483 14,300 -2,100 Descending Los Angeles Center
01:36PM 34.2464 -118.8408 162° South 394 453 12,500 -1,260 Descending Los Angeles Center
01:37PM 34.1494 -118.8044 163° South 365 420 11,700 -780 Descending Los Angeles Center
01:38PM 34.0531 -118.7578 158° South 344 396 10,900 -840 Descending Los Angeles Center
01:39PM 34.0297 -118.6614 106° East 309 356 10,000 -1,500 Descending Los Angeles Center
01:40PM 34.0192 -118.5531 97° East 305 351 7,900 -1,500 Descending Los Angeles Center
01:41PM 34.0108 -118.4572 96° East 291 335 7,000 -1,020 Descending Los Angeles Center
01:42PM 34.0192 -118.3731 83° East 262 302 5,800 -1,200 Descending Los Angeles Center
01:43PM 34.0264 -118.3083 82° East 250 288 4,600 -1,560 Descending Los Angeles Center
01:44PM 34.0361 -118.2186 83° East 231 266 2,600 -1,020 Descending Los Angeles Center
01:45PM 34.0414 -118.1494 85° East 227 261 2,600  Level Los Angeles Center
01:46PM 33.9942 -118.1428 173° South 191 220 2,600  Level Los Angeles Center
01:47PM 33.9725 -118.1989 245° Southwest 189 217 2,600 -180 Level Los Angeles Center
01:48PM 33.9658 -118.2714 264° West 186 214 2,300 -540 Descending Los Angeles Center
01:49PM 33.9608 -118.3233 263° West 171 197 1,500 -780 Descending Los Angeles Center
01:50PM 33.9567 -118.3711 264° West 156 180 700 -660 Descending Los Angeles Center
01:51PM 33.9511 -118.4200 262° West 151 174 200 -540 Descending Los Angeles Center